»·PEaware :: N21705 KSNA-KBUR

N21705 :: KSNA-KBUR

FLIGHT INFORMATION

Flight Status: Arrived
Operator: Privately registered:
United States
More flights under this callsign
Pilot: Anonymous 33140 (33140)
Aircraft: CESSNA 172 SKYHAWK
(C172)
More flights by this aircraft type
Origin: KSNA John Wayne-Orange Co
United States
Destination: KBUR Bob Hope-Burbank
United States
More flights between these airports :: More routes between these airports
Route: SLI V23 POPPR SMO125 SMO SMO311 SILEX
File this flight plan on PilotEdge
Remarks: TEC route CSTP1
Altitude:
(Current/Filed)
4,000ft
Speed:
(Current/Filed)
110kts
Departed: 15-Jan-21 09:57 AM
Arrived: 15-Jan-21 10:36 AM
Distance/Time
Traveled:
40nm/0:39
Distance/Time
To Go:
Arrived

Flight Plot

Page will automatically refresh every two minutes.


Map Options




Map Legend


Flown Route
Filed Route
Departure Airport
Arrival Airport
Navaid (VOR, NDB)
Fix

Horizontal Profiles

Position Reports

Time Latitude Longitude Heading Altitude Ground
Speed
15-Jan-21 09:31 33.676154 -117.870775 357 53ft 0kts
15-Jan-21 09:32 33.676154 -117.870775 357 53ft 0kts
15-Jan-21 09:33 33.676154 -117.870775 357 53ft 0kts
15-Jan-21 09:34 33.676154 -117.870775 357 53ft 0kts
15-Jan-21 09:35 33.676154 -117.870775 357 53ft 0kts
15-Jan-21 09:36 33.676154 -117.870775 357 53ft 0kts
15-Jan-21 09:37 33.676154 -117.870775 357 53ft 0kts
15-Jan-21 09:38 33.676154 -117.870775 357 53ft 0kts
15-Jan-21 09:39 33.676154 -117.870775 357 53ft 0kts
15-Jan-21 09:40 33.676154 -117.870775 357 53ft 0kts
15-Jan-21 09:41 33.676154 -117.870775 357 53ft 0kts
15-Jan-21 09:42 33.676154 -117.870775 357 53ft 0kts
15-Jan-21 09:43 33.676154 -117.870775 357 53ft 0kts
15-Jan-21 09:44 33.676154 -117.870775 357 53ft 0kts
15-Jan-21 09:45 33.676154 -117.870775 357 53ft 0kts
15-Jan-21 09:46 33.676154 -117.870775 357 53ft 0kts
15-Jan-21 09:47 33.676154 -117.870775 357 53ft 0kts
15-Jan-21 09:48 33.676154 -117.870775 357 53ft 0kts
15-Jan-21 09:49 33.676154 -117.870775 357 53ft 0kts
15-Jan-21 09:50 33.676169 -117.870222 89 54ft 5kts
15-Jan-21 09:51 33.679651 -117.867992 18 47ft 17kts
15-Jan-21 09:52 33.681247 -117.866561 110 43ft 0kts
15-Jan-21 09:53 33.681247 -117.866561 110 43ft 0kts
15-Jan-21 09:54 33.681247 -117.866561 110 43ft 0kts
15-Jan-21 09:55 33.680899 -117.865809 138 43ft 11kts
15-Jan-21 09:56 33.668405 -117.873364 207 464ft 66kts
15-Jan-21 09:57 33.658285 -117.893177 245 1198ft 71kts
15-Jan-21 09:58 33.650521 -117.913708 245 1932ft 65kts
15-Jan-21 09:59 33.643697 -117.933913 273 2566ft 66kts
15-Jan-21 10:00 33.648100 -117.955359 282 3167ft 65kts
15-Jan-21 10:01 33.652580 -117.976558 282 3722ft 65kts
15-Jan-21 10:02 33.669229 -117.995789 344 3797ft 104kts
15-Jan-21 10:03 33.687945 -118.018337 290 3796ft 99kts
15-Jan-21 10:04 33.708505 -118.040510 324 3796ft 101kts
15-Jan-21 10:05 33.732691 -118.064534 310 3798ft 123kts
15-Jan-21 10:06 33.754550 -118.096899 306 3796ft 124kts
15-Jan-21 10:07 33.775376 -118.129658 304 3795ft 120kts
15-Jan-21 10:08 33.794165 -118.162707 301 3797ft 119kts
15-Jan-21 10:09 33.811273 -118.194639 301 3796ft 119kts
15-Jan-21 10:10 33.826894 -118.223814 301 3776ft 120kts
15-Jan-21 10:11 33.837965 -118.261150 285 3769ft 119kts
15-Jan-21 10:12 33.849310 -118.297749 311 3768ft 119kts
15-Jan-21 10:13 33.875601 -118.322540 320 3768ft 120kts
15-Jan-21 10:14 33.902290 -118.346759 321 3769ft 120kts
15-Jan-21 10:15 33.928235 -118.372174 318 3768ft 120kts
15-Jan-21 10:16 33.954536 -118.397140 319 3769ft 120kts
15-Jan-21 10:17 33.980470 -118.422756 319 3769ft 120kts
15-Jan-21 10:18 34.006353 -118.448340 319 3769ft 120kts
15-Jan-21 10:19 34.030434 -118.476223 313 3769ft 120kts
15-Jan-21 10:20 34.054060 -118.504672 313 3770ft 120kts
15-Jan-21 10:21 34.077760 -118.533229 313 3769ft 119kts
15-Jan-21 10:22 34.101507 -118.561861 313 3769ft 121kts
15-Jan-21 10:23 34.125220 -118.590450 313 3769ft 120kts
15-Jan-21 10:24 34.148927 -118.619028 313 3769ft 119kts
15-Jan-21 10:25 34.173268 -118.646472 341 3764ft 121kts
15-Jan-21 10:26 34.199515 -118.624360 49 3303ft 119kts
15-Jan-21 10:27 34.196602 -118.605035 81 2913ft 85kts
15-Jan-21 10:28 34.200644 -118.577934 83 3319ft 106kts
15-Jan-21 10:29 34.200606 -118.538117 91 3303ft 123kts
15-Jan-21 10:30 34.199884 -118.498262 92 2815ft 119kts
15-Jan-21 10:31 34.199212 -118.459906 91 2046ft 108kts
15-Jan-21 10:33 34.198763 -118.424372 91 1442ft 105kts
15-Jan-21 10:34 34.198184 -118.389317 89 925ft 104kts
15-Jan-21 10:35 34.197723 -118.356427 91 715ft 57kts
15-Jan-21 10:36 34.198495 -118.352161 347 706ft 0kts
15-Jan-21 10:37 34.198495 -118.352161 347 706ft 0kts
15-Jan-21 10:38 34.198792 -118.353498 269 711ft 14kts
15-Jan-21 10:39 34.198865 -118.358047 270 715ft 0kts
15-Jan-21 10:40 34.198865 -118.358047 270 715ft 0kts
15-Jan-21 10:41 34.199418 -118.360201 32 717ft 4kts

Navigation Log

Ident Type
Flight plan parsing failed, navigation log unavailable